Terminal Aerodrome Forecast
Issued by NWS

Home | Current Version | Previous Version | Text Only | Print | Product List | Glossary On
Versions: 1 2 3 4 5 6 7 8 9 10 11 12 13 14 15 16 17 18 19 20
000
FTUS43 KDMX 291127
TAFOTM
TAF
KOTM 291127Z 2912/3012 33006KT P6SM BKN015
     FM291700 33007KT P6SM BKN025
     FM291900 33008KT P6SM BKN035
     FM300000 36007KT P6SM BKN050
     FM300600 33004KT P6SM BKN030
     FM300900 33004KT 5SM BR BKN015=

USA.gov is the U.S. government's official web portal to all federal, state and local government web resources and services.